Time;durP1;ratioP1;P1;durP2;ratioP2;P2;SDS_P1;SDS_P2;PMS_P1;PMS_P2;Temp;Humidity;BMP_temperature;BMP_pressure;BME280_temperature;BME280_humidity;BME280_pressure;Samples;Min_cycle;Max_cycle;Signal;HPM_P1;HPM_P2
2023/12/01 00:05:38;;;;;;;10.02;7.88;;;;;;;;;;5955629;22;10222045;-95
2023/12/01 00:08:07;;;;;;;8.87;7.97;;;;;;;;;;6326542;22;20262;-95
2023/12/01 00:10:35;;;;;;;8.93;6.33;;;;;;;;;;6300905;22;20383;-95
2023/12/01 00:13:01;;;;;;;8.73;6.43;;;;;;;;;;6300939;22;20391;-95
2023/12/01 00:15:29;;;;;;;18.30;5.80;;;;;;;;;;6299828;22;20384;-96
2023/12/01 00:17:56;;;;;;;9.80;6.77;;;;;;;;;;6304296;22;21063;-95
2023/12/01 00:20:22;;;;;;;8.93;7.00;;;;;;;;;;6302108;22;20387;-95
2023/12/01 00:22:50;;;;;;;9.40;7.13;;;;;;;;;;6303183;22;20372;-96
2023/12/01 00:25:16;;;;;;;10.50;7.67;;;;;;;;;;6325883;22;20486;-95
2023/12/01 00:27:42;;;;;;;10.70;7.47;;;;;;;;;;6301115;22;20387;-95
2023/12/01 00:30:08;;;;;;;7.77;6.87;;;;;;;;;;6298837;22;20461;-96
2023/12/01 00:32:34;;;;;;;10.43;6.70;;;;;;;;;;6302721;22;20372;-94
2023/12/01 00:35:00;;;;;;;10.07;6.70;;;;;;;;;;6267888;22;21225;-94
2023/12/01 00:37:30;;;;;;;7.67;6.33;;;;;;;;;;6242214;22;20456;-94
2023/12/01 00:40:06;;;;;;;8.93;6.57;;;;;;;;;;6240772;22;20371;-96
2023/12/01 00:42:32;;;;;;;9.37;6.83;;;;;;;;;;6242678;22;20373;-95
2023/12/01 00:45:01;;;;;;;9.00;8.20;;;;;;;;;;6268537;22;20435;-95
2023/12/01 00:47:27;;;;;;;10.43;7.00;;;;;;;;;;6244751;22;20400;-94
2023/12/01 00:49:53;;;;;;;8.07;7.27;;;;;;;;;;6242146;22;20400;-93
2023/12/01 00:52:29;;;;;;;7.90;7.10;;;;;;;;;;6244636;22;20427;-96
2023/12/01 00:54:55;;;;;;;6.90;5.77;;;;;;;;;;6245243;22;20380;-95
2023/12/01 00:57:24;;;;;;;8.03;7.20;;;;;;;;;;6247560;22;20393;-95
2023/12/01 00:59:51;;;;;;;12.67;8.93;;;;;;;;;;6247874;22;20388;-94
2023/12/01 01:02:17;;;;;;;10.03;8.40;;;;;;;;;;6250340;22;20400;-95
2023/12/01 01:04:44;;;;;;;9.27;7.03;;;;;;;;;;6245776;22;20425;-94
2023/12/01 01:07:17;;;;;;;11.10;6.50;;;;;;;;;;6298856;22;20479;-95
2023/12/01 01:09:44;;;;;;;11.47;7.27;;;;;;;;;;6295748;22;20387;-94
2023/12/01 01:12:11;;;;;;;8.47;7.43;;;;;;;;;;6295319;22;20376;-95
2023/12/01 01:14:37;;;;;;;13.20;6.87;;;;;;;;;;6294898;22;20364;-96
2023/12/01 01:17:06;;;;;;;10.93;7.97;;;;;;;;;;6295003;22;20369;-95
2023/12/01 01:19:32;;;;;;;10.83;8.13;;;;;;;;;;6294312;22;20381;-95
2023/12/01 01:21:59;;;;;;;8.30;7.20;;;;;;;;;;6295167;22;20380;-96
2023/12/01 01:24:25;;;;;;;7.77;7.03;;;;;;;;;;6322023;22;20516;-94
2023/12/01 01:26:52;;;;;;;12.50;6.80;;;;;;;;;;6295162;22;20384;-96
2023/12/01 01:29:18;;;;;;;11.33;8.30;;;;;;;;;;6322569;22;20412;-95
2023/12/01 01:31:44;;;;;;;10.23;7.70;;;;;;;;;;6295804;22;20600;-94
2023/12/01 01:34:11;;;;;;;8.97;6.90;;;;;;;;;;6294631;22;20388;-96
2023/12/01 01:36:37;;;;;;;10.10;7.33;;;;;;;;;;6292833;22;20414;-94
2023/12/01 01:39:03;;;;;;;8.33;7.17;;;;;;;;;;6295708;22;20388;-93
2023/12/01 01:41:30;;;;;;;7.70;6.80;;;;;;;;;;6317108;22;20384;-95
2023/12/01 01:43:56;;;;;;;13.50;6.97;;;;;;;;;;6295380;22;20471;-94
2023/12/01 01:46:22;;;;;;;9.63;8.20;;;;;;;;;;6292535;22;20372;-96
2023/12/01 01:48:48;;;;;;;10.43;6.97;;;;;;;;;;6292390;22;20384;-94
2023/12/01 01:51:17;;;;;;;9.70;7.50;;;;;;;;;;6291872;22;20408;-95
2023/12/01 01:53:43;;;;;;;7.43;6.73;;;;;;;;;;6291434;22;20376;-95
2023/12/01 01:56:12;;;;;;;15.97;7.70;;;;;;;;;;6290587;22;20365;-95
2023/12/01 01:58:38;;;;;;;10.77;7.93;;;;;;;;;;6293664;22;20953;-96
2023/12/01 02:01:07;;;;;;;9.87;7.57;;;;;;;;;;6289993;22;20396;-95
2023/12/01 02:03:34;;;;;;;10.10;7.13;;;;;;;;;;6283322;22;20722;-94
2023/12/01 02:06:06;;;;;;;9.47;8.60;;;;;;;;;;6233213;22;20397;-95
2023/12/01 02:08:33;;;;;;;11.63;7.33;;;;;;;;;;6234532;22;20724;-96
2023/12/01 02:11:00;;;;;;;10.93;8.13;;;;;;;;;;6234107;22;20389;-94
2023/12/01 02:13:26;;;;;;;11.77;8.40;;;;;;;;;;6236376;22;20388;-95
2023/12/01 02:15:52;;;;;;;9.77;7.67;;;;;;;;;;6220766;23;20399;-94
2023/12/01 02:18:22;;;;;;;11.40;8.03;;;;;;;;;;6223652;22;20363;-94
2023/12/01 02:20:48;;;;;;;15.20;10.47;;;;;;;;;;6196927;23;20383;-95
2023/12/01 02:23:17;;;;;;;8.40;7.53;;;;;;;;;;6199567;23;20423;-94
2023/12/01 02:25:43;;;;;;;13.00;8.77;;;;;;;;;;6195754;23;20375;-95
2023/12/01 02:28:09;;;;;;;10.10;8.87;;;;;;;;;;6196622;23;20375;-94
2023/12/01 02:30:35;;;;;;;9.23;8.10;;;;;;;;;;6196879;23;20403;-93
2023/12/01 02:33:03;;;;;;;9.80;8.03;;;;;;;;;;6197416;23;20389;-93
2023/12/01 02:35:32;;;;;;;13.73;8.43;;;;;;;;;;6224505;23;20387;-94
2023/12/01 02:38:01;;;;;;;9.70;8.70;;;;;;;;;;6200095;23;20464;-95
2023/12/01 02:40:27;;;;;;;10.57;8.40;;;;;;;;;;6202119;22;20409;-95
2023/12/01 02:42:53;;;;;;;9.33;7.93;;;;;;;;;;6200635;23;20406;-95
2023/12/01 02:45:20;;;;;;;11.23;8.57;;;;;;;;;;6206393;23;20366;-94
2023/12/01 02:47:49;;;;;;;10.70;7.77;;;;;;;;;;6280903;22;20458;-94
2023/12/01 02:50:16;;;;;;;10.00;8.37;;;;;;;;;;6320578;22;20413;-94
2023/12/01 02:52:42;;;;;;;12.03;8.37;;;;;;;;;;6320188;22;20367;-93
2023/12/01 02:55:08;;;;;;;10.67;8.40;;;;;;;;;;6321437;22;20440;-94
2023/12/01 02:57:35;;;;;;;9.10;7.70;;;;;;;;;;6319794;22;20380;-95
2023/12/01 03:00:05;;;;;;;8.00;6.73;;;;;;;;;;6319723;22;20375;-94
2023/12/01 03:02:32;;;;;;;12.30;8.37;;;;;;;;;;6320455;22;20363;-94
2023/12/01 03:04:58;;;;;;;10.47;8.50;;;;;;;;;;6319697;22;20998;-95
2023/12/01 03:07:23;;;;;;;9.27;6.90;;;;;;;;;;6318235;22;20383;-95
2023/12/01 03:09:50;;;;;;;10.57;7.07;;;;;;;;;;6320335;22;20376;-94
2023/12/01 03:12:16;;;;;;;9.23;8.27;;;;;;;;;;6318506;22;20379;-94
2023/12/01 03:14:42;;;;;;;22.40;10.47;;;;;;;;;;6320339;22;20433;-93
2023/12/01 03:17:08;;;;;;;12.80;8.80;;;;;;;;;;6226485;23;20418;-95
2023/12/01 03:19:34;;;;;;;10.40;6.60;;;;;;;;;;6229788;23;20444;-94
2023/12/01 03:22:00;;;;;;;8.93;7.60;;;;;;;;;;6203142;23;20421;-93
2023/12/01 03:24:26;;;;;;;8.40;7.67;;;;;;;;;;6201469;23;20429;-94
2023/12/01 03:26:52;;;;;;;10.50;8.60;;;;;;;;;;6203940;23;20378;-95
2023/12/01 03:29:19;;;;;;;12.90;8.83;;;;;;;;;;6200549;23;20405;-94
2023/12/01 03:31:45;;;;;;;9.97;7.97;;;;;;;;;;6205430;23;20394;-94
2023/12/01 03:34:11;;;;;;;13.77;9.00;;;;;;;;;;6198951;23;20458;-94
2023/12/01 03:36:37;;;;;;;10.50;7.93;;;;;;;;;;6201056;22;20382;-95
2023/12/01 03:39:03;;;;;;;11.63;9.53;;;;;;;;;;6199125;23;20468;-95
2023/12/01 03:41:29;;;;;;;11.13;8.50;;;;;;;;;;6201961;23;20373;-94
2023/12/01 03:43:55;;;;;;;10.47;9.37;;;;;;;;;;6200905;23;20497;-94
2023/12/01 03:46:21;;;;;;;10.60;8.17;;;;;;;;;;6202593;23;20374;-93
2023/12/01 03:48:47;;;;;;;12.33;9.40;;;;;;;;;;6266788;22;20383;-94
2023/12/01 03:51:13;;;;;;;10.57;8.47;;;;;;;;;;6289623;22;20380;-93
2023/12/01 03:53:39;;;;;;;15.57;11.00;;;;;;;;;;6287104;22;20387;-93
2023/12/01 03:56:06;;;;;;;9.47;6.80;;;;;;;;;;6287790;22;20385;-94
2023/12/01 03:58:32;;;;;;;10.40;7.60;;;;;;;;;;6287744;22;20416;-94
2023/12/01 04:01:05;;;;;;;10.63;8.57;;;;;;;;;;6287031;22;20391;-94
2023/12/01 04:03:31;;;;;;;13.60;9.23;;;;;;;;;;6286293;22;20408;-92
2023/12/01 04:06:01;;;;;;;14.73;8.80;;;;;;;;;;6287348;22;20431;-94
2023/12/01 04:08:27;;;;;;;12.90;8.83;;;;;;;;;;6285194;22;20381;-93
2023/12/01 04:10:53;;;;;;;13.60;10.00;;;;;;;;;;6283718;22;20381;-93
2023/12/01 04:13:20;;;;;;;12.60;8.73;;;;;;;;;;6286586;22;20938;-93
2023/12/01 04:15:52;;;;;;;12.00;8.80;;;;;;;;;;6287305;22;20372;-94
2023/12/01 04:18:19;;;;;;;10.30;9.30;;;;;;;;;;6284926;22;20388;-93
2023/12/01 04:20:47;;;;;;;12.80;8.63;;;;;;;;;;6285845;22;20404;-93
2023/12/01 04:23:14;;;;;;;8.97;7.60;;;;;;;;;;6284334;22;20500;-93
2023/12/01 04:25:41;;;;;;;11.23;8.80;;;;;;;;;;6286690;22;20386;-93
2023/12/01 04:28:10;;;;;;;13.80;7.57;;;;;;;;;;6284187;22;20380;-93
2023/12/01 04:30:36;;;;;;;10.07;7.70;;;;;;;;;;6285218;22;20373;-93
2023/12/01 04:33:02;;;;;;;10.17;9.13;;;;;;;;;;6287137;22;20364;-94
2023/12/01 04:35:29;;;;;;;9.30;8.33;;;;;;;;;;6292706;22;20418;-94
2023/12/01 04:37:55;;;;;;;8.50;7.60;;;;;;;;;;6287271;22;20918;-94
2023/12/01 04:40:21;;;;;;;9.07;8.03;;;;;;;;;;6289065;22;20380;-93
2023/12/01 04:42:48;;;;;;;11.70;9.53;;;;;;;;;;6289892;22;20739;-93
2023/12/01 04:45:15;;;;;;;9.17;7.30;;;;;;;;;;6293738;22;20411;-93
2023/12/01 04:47:41;;;;;;;9.37;6.60;;;;;;;;;;6290902;22;20387;-93
2023/12/01 04:50:12;;;;;;;7.77;6.50;;;;;;;;;;6291559;22;20375;-93
2023/12/01 04:52:39;;;;;;;11.20;9.00;;;;;;;;;;6293482;22;20425;-92
2023/12/01 04:55:06;;;;;;;9.63;7.37;;;;;;;;;;6291127;22;20369;-94
2023/12/01 04:57:33;;;;;;;9.80;7.60;;;;;;;;;;6288941;22;20692;-93
2023/12/01 04:59:59;;;;;;;7.63;6.50;;;;;;;;;;6290156;22;20699;-92
2023/12/01 05:02:25;;;;;;;9.40;6.53;;;;;;;;;;6289024;22;20373;-93
2023/12/01 05:04:51;;;;;;;10.57;8.47;;;;;;;;;;6291459;22;20424;-92
2023/12/01 05:07:17;;;;;;;9.40;7.67;;;;;;;;;;6287807;22;20407;-92
2023/12/01 05:09:43;;;;;;;8.97;7.60;;;;;;;;;;6290579;22;20372;-92
2023/12/01 05:12:09;;;;;;;8.93;7.87;;;;;;;;;;6289357;22;20390;-92
2023/12/01 05:14:35;;;;;;;10.97;8.90;;;;;;;;;;6290364;22;20400;-92
2023/12/01 05:17:01;;;;;;;8.60;7.00;;;;;;;;;;6287146;22;20749;-92
2023/12/01 05:19:27;;;;;;;8.60;6.87;;;;;;;;;;6287291;22;20381;-91
2023/12/01 05:21:53;;;;;;;9.40;7.67;;;;;;;;;;6288950;22;20905;-92
2023/12/01 05:24:19;;;;;;;8.90;6.97;;;;;;;;;;6287363;22;20420;-91
2023/12/01 05:26:45;;;;;;;11.23;7.70;;;;;;;;;;6288531;22;20455;-91
2023/12/01 05:29:13;;;;;;;9.17;7.37;;;;;;;;;;6287611;22;20376;-91
2023/12/01 05:31:39;;;;;;;8.77;7.47;;;;;;;;;;6289060;22;20406;-91
2023/12/01 05:34:05;;;;;;;8.90;8.00;;;;;;;;;;6286240;22;20392;-91
2023/12/01 05:36:32;;;;;;;8.60;6.37;;;;;;;;;;6286423;22;20400;-92
2023/12/01 05:38:58;;;;;;;10.47;6.80;;;;;;;;;;6286268;22;20395;-92
2023/12/01 05:41:24;;;;;;;9.20;6.97;;;;;;;;;;6286873;22;20796;-93
2023/12/01 05:43:50;;;;;;;9.97;8.93;;;;;;;;;;6288739;22;20416;-92
2023/12/01 05:46:16;;;;;;;10.33;7.70;;;;;;;;;;6286313;22;20386;-92
2023/12/01 05:48:42;;;;;;;9.57;8.50;;;;;;;;;;6288749;22;20380;-92
2023/12/01 05:51:08;;;;;;;11.20;7.57;;;;;;;;;;6288596;22;20726;-91
2023/12/01 05:53:34;;;;;;;10.80;8.20;;;;;;;;;;6287083;22;20380;-92
2023/12/01 05:56:03;;;;;;;5.83;5.23;;;;;;;;;;6287004;22;20381;-91
2023/12/01 05:58:29;;;;;;;10.70;7.70;;;;;;;;;;6286952;22;20402;-92
2023/12/01 06:00:56;;;;;;;8.10;7.30;;;;;;;;;;6254675;22;20393;-92
2023/12/01 06:03:22;;;;;;;9.50;7.20;;;;;;;;;;6254887;22;20428;-92
2023/12/01 06:05:48;;;;;;;10.47;7.73;;;;;;;;;;6256354;22;20389;-92
2023/12/01 06:08:14;;;;;;;9.50;8.43;;;;;;;;;;6254538;22;20911;-91
2023/12/01 06:10:40;;;;;;;11.30;8.87;;;;;;;;;;6255051;22;20370;-91
2023/12/01 06:13:08;;;;;;;9.47;8.43;;;;;;;;;;6253204;22;20495;-90
2023/12/01 06:15:34;;;;;;;9.57;7.53;;;;;;;;;;6254536;22;20880;-90
2023/12/01 06:18:01;;;;;;;10.73;7.73;;;;;;;;;;6256039;22;20519;-90
2023/12/01 06:20:27;;;;;;;10.60;8.03;;;;;;;;;;6254221;22;20389;-91
2023/12/01 06:22:56;;;;;;;8.80;7.80;;;;;;;;;;6253068;22;20377;-91
2023/12/01 06:25:27;;;;;;;8.70;6.37;;;;;;;;;;6280547;22;20374;-91
2023/12/01 06:27:53;;;;;;;9.97;7.30;;;;;;;;;;6258776;22;20458;-90
2023/12/01 06:30:19;;;;;;;8.47;7.10;;;;;;;;;;6255135;22;20366;-90
2023/12/01 06:32:45;;;;;;;9.33;7.37;;;;;;;;;;6307129;22;20398;-90
2023/12/01 06:35:12;;;;;;;8.93;7.47;;;;;;;;;;6286948;22;20392;-90
2023/12/01 06:37:41;;;;;;;9.10;7.33;;;;;;;;;;6288605;22;20395;-91
2023/12/01 06:40:15;;;;;;;8.47;6.80;;;;;;;;;;6286064;22;20380;-92
2023/12/01 06:42:42;;;;;;;8.17;7.37;;;;;;;;;;6288549;22;20364;-89
2023/12/01 06:45:11;;;;;;;6.40;5.80;;;;;;;;;;6309316;22;20510;-89
2023/12/01 06:47:38;;;;;;;8.37;7.57;;;;;;;;;;6284717;22;20391;-89
2023/12/01 06:50:05;;;;;;;6.77;6.07;;;;;;;;;;6285681;22;20383;-90
2023/12/01 06:52:31;;;;;;;7.90;6.17;;;;;;;;;;6285002;22;20373;-89
2023/12/01 06:54:57;;;;;;;8.50;7.47;;;;;;;;;;6284342;22;20384;-89
2023/12/01 06:57:23;;;;;;;7.33;6.63;;;;;;;;;;6286347;22;20380;-89
2023/12/01 06:59:49;;;;;;;7.20;6.50;;;;;;;;;;6284525;22;20377;-89
2023/12/01 07:02:17;;;;;;;8.90;6.93;;;;;;;;;;6285936;22;20410;-90
2023/12/01 07:04:44;;;;;;;7.43;6.83;;;;;;;;;;6288044;22;20420;-88
2023/12/01 07:07:12;;;;;;;9.10;8.13;;;;;;;;;;6284615;22;20384;-89
2023/12/01 07:09:38;;;;;;;8.40;7.47;;;;;;;;;;6287803;22;20376;-89
2023/12/01 07:12:05;;;;;;;8.30;7.40;;;;;;;;;;6284685;22;20367;-89
2023/12/01 07:14:31;;;;;;;8.30;7.40;;;;;;;;;;6286297;22;20384;-89
2023/12/01 07:16:57;;;;;;;10.80;6.87;;;;;;;;;;6284792;22;20368;-88
2023/12/01 07:19:23;;;;;;;7.90;6.50;;;;;;;;;;6285007;22;21083;-89
2023/12/01 07:21:49;;;;;;;7.70;6.73;;;;;;;;;;6283427;22;20437;-89
2023/12/01 07:24:15;;;;;;;9.27;7.57;;;;;;;;;;6286548;22;20420;-89
2023/12/01 07:26:41;;;;;;;8.17;6.73;;;;;;;;;;6312467;22;20459;-89
2023/12/01 07:29:07;;;;;;;9.10;7.73;;;;;;;;;;6314804;22;20365;-89
2023/12/01 07:31:35;;;;;;;8.60;6.70;;;;;;;;;;6297732;22;20379;-90
2023/12/01 07:34:02;;;;;;;8.00;7.30;;;;;;;;;;6299759;22;20376;-91
2023/12/01 07:36:28;;;;;;;9.20;6.53;;;;;;;;;;6297302;22;20387;-89
2023/12/01 07:38:55;;;;;;;10.20;7.73;;;;;;;;;;6299802;22;20391;-90
2023/12/01 07:41:21;;;;;;;12.03;9.20;;;;;;;;;;6300994;22;20368;-90
2023/12/01 07:43:55;;;;;;;8.07;7.33;;;;;;;;;;6324926;22;20407;-91
2023/12/01 07:46:23;;;;;;;10.67;7.37;;;;;;;;;;6288872;22;20361;-89
2023/12/01 07:48:49;;;;;;;8.30;7.27;;;;;;;;;;6236388;22;20411;-89
2023/12/01 07:51:16;;;;;;;10.40;8.30;;;;;;;;;;6236781;22;20378;-88
2023/12/01 07:53:45;;;;;;;9.70;6.87;;;;;;;;;;6237754;22;20411;-88
2023/12/01 07:56:12;;;;;;;9.47;7.60;;;;;;;;;;6226319;23;20446;-90
2023/12/01 07:58:38;;;;;;;13.47;8.30;;;;;;;;;;6223627;23;20893;-89
2023/12/01 08:01:05;;;;;;;7.40;6.67;;;;;;;;;;6222515;23;20414;-89
2023/12/01 08:03:31;;;;;;;9.20;7.87;;;;;;;;;;6227774;23;20518;-89
2023/12/01 08:06:00;;;;;;;9.10;7.80;;;;;;;;;;6226530;23;20564;-90
2023/12/01 08:08:27;;;;;;;10.90;7.87;;;;;;;;;;6226546;23;20391;-89
2023/12/01 08:10:53;;;;;;;8.87;7.10;;;;;;;;;;6250586;23;20366;-90
2023/12/01 08:13:21;;;;;;;7.67;5.53;;;;;;;;;;6229361;23;20521;-89
2023/12/01 08:15:47;;;;;;;10.10;7.83;;;;;;;;;;6231302;23;20382;-90
2023/12/01 08:18:15;;;;;;;9.27;7.73;;;;;;;;;;6255337;22;20419;-90
2023/12/01 08:20:41;;;;;;;11.00;8.13;;;;;;;;;;6236019;22;20455;-90
2023/12/01 08:23:09;;;;;;;7.97;7.20;;;;;;;;;;6233712;22;20460;-90
2023/12/01 08:25:35;;;;;;;8.63;7.43;;;;;;;;;;6235054;22;20408;-89
2023/12/01 08:28:01;;;;;;;9.00;8.00;;;;;;;;;;6283445;22;20380;-89
2023/12/01 08:30:27;;;;;;;9.80;7.07;;;;;;;;;;6290722;22;20467;-89
2023/12/01 08:32:53;;;;;;;10.10;5.77;;;;;;;;;;6320997;22;20389;-90
2023/12/01 08:35:21;;;;;;;11.00;8.30;;;;;;;;;;6263341;22;20377;-90
2023/12/01 08:37:47;;;;;;;9.33;7.30;;;;;;;;;;6204730;23;20367;-90
2023/12/01 08:40:13;;;;;;;8.93;7.10;;;;;;;;;;6175193;23;20387;-91
2023/12/01 08:42:42;;;;;;;10.80;8.90;;;;;;;;;;6179013;23;20465;-87
2023/12/01 08:45:09;;;;;;;9.30;6.13;;;;;;;;;;6200343;23;20476;-89
2023/12/01 08:47:35;;;;;;;8.90;7.83;;;;;;;;;;6176943;23;20424;-88
2023/12/01 08:50:01;;;;;;;10.07;7.70;;;;;;;;;;6176424;23;20395;-89
2023/12/01 08:52:27;;;;;;;8.67;5.90;;;;;;;;;;6177240;23;20466;-90
2023/12/01 08:54:54;;;;;;;8.60;7.33;;;;;;;;;;6175650;23;20399;-90
2023/12/01 08:57:20;;;;;;;8.07;6.80;;;;;;;;;;6176770;23;20402;-90
2023/12/01 08:59:47;;;;;;;7.03;5.90;;;;;;;;;;6202325;23;20446;-90
2023/12/01 09:02:13;;;;;;;8.60;7.00;;;;;;;;;;6178045;23;20492;-90
2023/12/01 09:04:39;;;;;;;10.20;7.47;;;;;;;;;;6177748;23;20438;-90
2023/12/01 09:07:05;;;;;;;10.50;9.00;;;;;;;;;;6202934;23;21163;-89
2023/12/01 09:09:31;;;;;;;7.07;6.13;;;;;;;;;;6209178;23;20382;-89
2023/12/01 09:11:57;;;;;;;11.00;7.23;;;;;;;;;;6205805;23;20378;-90
2023/12/01 09:14:23;;;;;;;7.23;6.53;;;;;;;;;;6208370;23;20413;-90
2023/12/01 09:16:50;;;;;;;9.43;6.87;;;;;;;;;;6230452;23;20374;-90
2023/12/01 09:19:16;;;;;;;13.60;8.13;;;;;;;;;;6206064;23;20412;-90
2023/12/01 09:21:42;;;;;;;7.37;6.67;;;;;;;;;;6206469;23;20366;-88
2023/12/01 09:24:08;;;;;;;7.00;6.33;;;;;;;;;;6209438;23;20417;-90
2023/12/01 09:26:34;;;;;;;10.17;8.23;;;;;;;;;;6232965;23;20384;-90
2023/12/01 09:29:00;;;;;;;7.03;6.43;;;;;;;;;;6281206;22;20380;-88
2023/12/01 09:31:32;;;;;;;11.77;8.17;;;;;;;;;;6289647;22;20435;-89
2023/12/01 09:33:58;;;;;;;7.43;6.50;;;;;;;;;;6286829;22;20708;-90
2023/12/01 09:36:26;;;;;;;10.30;7.07;;;;;;;;;;6289672;22;20371;-90
2023/12/01 09:38:52;;;;;;;10.57;6.50;;;;;;;;;;6289403;22;20380;-89
2023/12/01 09:41:18;;;;;;;12.70;9.50;;;;;;;;;;6288566;22;20373;-89
2023/12/01 09:43:44;;;;;;;16.90;10.10;;;;;;;;;;6289977;22;20451;-89
2023/12/01 09:46:11;;;;;;;13.80;8.70;;;;;;;;;;6287786;22;21007;-90
2023/12/01 09:48:39;;;;;;;8.97;7.53;;;;;;;;;;6289590;22;20383;-90
2023/12/01 09:51:05;;;;;;;8.97;6.30;;;;;;;;;;6291243;22;20367;-90
2023/12/01 09:53:31;;;;;;;13.23;8.37;;;;;;;;;;6293205;22;20384;-89
2023/12/01 09:55:57;;;;;;;7.57;6.80;;;;;;;;;;6316992;22;20356;-90
2023/12/01 09:58:24;;;;;;;10.50;7.40;;;;;;;;;;6318467;22;20369;-90
2023/12/01 10:00:51;;;;;;;6.80;6.13;;;;;;;;;;6292287;22;20385;-92
2023/12/01 10:03:18;;;;;;;11.30;8.23;;;;;;;;;;6317861;22;20375;-90
2023/12/01 10:05:44;;;;;;;10.20;8.37;;;;;;;;;;6284694;22;20752;-92
2023/12/01 10:08:10;;;;;;;15.60;9.57;;;;;;;;;;6287147;22;20383;-90
2023/12/01 10:10:36;;;;;;;12.47;10.00;;;;;;;;;;6310057;22;20424;-91
2023/12/01 10:13:07;;;;;;;13.07;7.27;;;;;;;;;;6286927;22;20369;-90
2023/12/01 10:15:33;;;;;;;15.00;9.70;;;;;;;;;;6311905;22;20403;-91
2023/12/01 10:18:23;;;;;;;12.90;9.57;;;;;;;;;;6285926;22;20391;-90
2023/12/01 10:21:07;;;;;;;11.90;8.53;;;;;;;;;;6285207;22;20395;-90
2023/12/01 10:23:41;;;;;;;14.67;8.83;;;;;;;;;;6288435;22;20422;-89
2023/12/01 10:26:07;;;;;;;11.07;8.80;;;;;;;;;;6283011;22;20369;-89
2023/12/01 10:28:40;;;;;;;12.53;8.87;;;;;;;;;;6287394;22;20384;-90
2023/12/01 10:31:06;;;;;;;14.93;9.13;;;;;;;;;;6287674;22;20384;-90
2023/12/01 10:33:32;;;;;;;17.10;10.53;;;;;;;;;;6290070;22;20382;-90
2023/12/01 10:35:58;;;;;;;11.87;9.10;;;;;;;;;;6285552;22;20387;-89
2023/12/01 10:38:28;;;;;;;12.00;8.07;;;;;;;;;;6307583;22;20372;-89
2023/12/01 10:40:55;;;;;;;14.70;10.50;;;;;;;;;;6284050;22;20954;-90
2023/12/01 10:43:21;;;;;;;17.73;12.63;;;;;;;;;;6289631;22;20866;-91
2023/12/01 10:45:49;;;;;;;10.90;9.23;;;;;;;;;;6286422;22;20412;-91
2023/12/01 10:48:15;;;;;;;14.87;8.50;;;;;;;;;;6287040;22;20930;-90
2023/12/01 10:50:42;;;;;;;13.07;8.77;;;;;;;;;;6313458;22;20436;-90
2023/12/01 10:53:08;;;;;;;16.73;10.00;;;;;;;;;;6287020;22;20376;-89
2023/12/01 10:55:34;;;;;;;18.23;9.30;;;;;;;;;;6289931;22;20407;-89
2023/12/01 10:58:00;;;;;;;13.77;8.40;;;;;;;;;;6286521;22;20376;-89
2023/12/01 11:00:32;;;;;;;17.37;10.43;;;;;;;;;;6288868;22;20368;-90
2023/12/01 11:03:04;;;;;;;13.50;9.37;;;;;;;;;;6286525;22;20736;-90
2023/12/01 11:05:31;;;;;;;17.53;11.70;;;;;;;;;;6291887;22;20399;-90
2023/12/01 11:08:06;;;;;;;18.47;10.10;;;;;;;;;;6292709;22;20518;-91
2023/12/01 11:10:32;;;;;;;13.27;9.13;;;;;;;;;;6317620;22;20857;-90
2023/12/01 11:13:18;;;;;;;18.47;11.60;;;;;;;;;;6342117;22;20386;-90
2023/12/01 11:15:44;;;;;;;18.37;9.37;;;;;;;;;;6320573;22;20355;-89
2023/12/01 11:18:13;;;;;;;22.63;14.17;;;;;;;;;;6317750;22;20383;-91
2023/12/01 11:20:46;;;;;;;22.90;11.90;;;;;;;;;;6293401;22;20383;-92
2023/12/01 11:23:12;;;;;;;19.13;13.17;;;;;;;;;;6293127;22;20415;-91
2023/12/01 11:25:45;;;;;;;20.27;13.20;;;;;;;;;;6319467;22;20462;-91
2023/12/01 11:28:20;;;;;;;20.23;13.30;;;;;;;;;;6317354;22;20367;-90
2023/12/01 11:31:12;;;;;;;19.50;11.63;;;;;;;;;;6292628;22;20747;-91
2023/12/01 11:33:40;;;;;;;19.87;12.90;;;;;;;;;;6302668;22;20376;-90
2023/12/01 11:36:22;;;;;;;14.70;10.50;;;;;;;;;;6291248;22;20379;-91
2023/12/01 11:41:41;;;;;;;21.33;14.50;;;;;;;;;;6345853;22;20376;-90
2023/12/01 11:44:16;;;;;;;14.67;10.20;;;;;;;;;;6319202;22;20419;-90
2023/12/01 11:46:43;;;;;;;19.13;13.30;;;;;;;;;;6317767;22;20367;-91
2023/12/01 11:49:13;;;;;;;24.27;12.77;;;;;;;;;;6320664;22;20483;-91
2023/12/01 11:51:43;;;;;;;21.07;12.53;;;;;;;;;;6293480;22;20481;-91
2023/12/01 11:54:09;;;;;;;19.40;11.37;;;;;;;;;;6295396;22;20482;-90
2023/12/01 11:56:35;;;;;;;31.63;15.47;;;;;;;;;;6293984;22;20524;-90
2023/12/01 11:59:02;;;;;;;19.07;12.77;;;;;;;;;;6292667;22;20375;-92
2023/12/01 12:01:31;;;;;;;20.87;13.17;;;;;;;;;;6292566;22;20395;-91
2023/12/01 12:03:58;;;;;;;20.03;14.37;;;;;;;;;;6291856;22;20788;-91
2023/12/01 12:06:24;;;;;;;23.87;12.57;;;;;;;;;;6290406;22;20395;-90
2023/12/01 12:08:52;;;;;;;22.03;13.10;;;;;;;;;;6288392;22;20363;-90
2023/12/01 12:11:19;;;;;;;17.30;11.30;;;;;;;;;;6286252;22;20379;-90
2023/12/01 12:13:45;;;;;;;15.80;10.83;;;;;;;;;;6316634;22;20370;-91
2023/12/01 12:16:12;;;;;;;25.77;12.80;;;;;;;;;;6287305;22;20758;-89
2023/12/01 12:18:38;;;;;;;21.90;13.37;;;;;;;;;;6289594;22;20406;-89
2023/12/01 12:21:04;;;;;;;27.83;14.70;;;;;;;;;;6287127;22;20375;-90
2023/12/01 12:23:32;;;;;;;25.30;14.80;;;;;;;;;;6293464;22;20914;-89
2023/12/01 12:26:14;;;;;;;22.47;14.87;;;;;;;;;;6292907;22;20783;-90
2023/12/01 12:28:41;;;;;;;32.17;17.20;;;;;;;;;;6290304;22;20429;-89
2023/12/01 12:31:07;;;;;;;29.30;16.20;;;;;;;;;;6291590;22;20475;-90
2023/12/01 12:33:33;;;;;;;23.53;17.10;;;;;;;;;;6290680;22;20379;-91
2023/12/01 12:36:01;;;;;;;30.63;16.57;;;;;;;;;;6294528;22;20379;-91
2023/12/01 12:38:27;;;;;;;27.23;15.83;;;;;;;;;;6293778;22;20387;-91
2023/12/01 12:40:53;;;;;;;26.00;14.43;;;;;;;;;;6291269;22;20456;-92
2023/12/01 12:43:20;;;;;;;30.63;15.13;;;;;;;;;;6289807;22;20422;-90
2023/12/01 12:45:49;;;;;;;26.13;17.50;;;;;;;;;;6318000;22;20904;-90
2023/12/01 12:48:18;;;;;;;26.80;14.80;;;;;;;;;;6290811;22;20395;-90
2023/12/01 12:50:46;;;;;;;22.77;15.23;;;;;;;;;;6292774;22;20376;-90
2023/12/01 12:53:12;;;;;;;28.20;18.93;;;;;;;;;;6292115;22;20445;-92
2023/12/01 12:55:38;;;;;;;28.63;14.90;;;;;;;;;;6295404;22;20382;-92
2023/12/01 12:58:04;;;;;;;23.40;13.60;;;;;;;;;;6292172;22;20403;-92
2023/12/01 13:00:30;;;;;;;32.57;17.50;;;;;;;;;;6315400;22;20433;-91
2023/12/01 13:02:56;;;;;;;29.93;16.70;;;;;;;;;;6293080;22;20379;-92
2023/12/01 13:05:22;;;;;;;24.47;14.90;;;;;;;;;;6295083;22;20415;-92
2023/12/01 13:07:48;;;;;;;24.67;14.70;;;;;;;;;;6317435;22;20383;-90
2023/12/01 13:10:14;;;;;;;30.37;15.73;;;;;;;;;;6294325;22;20382;-88
2023/12/01 13:12:40;;;;;;;23.40;15.27;;;;;;;;;;6316971;22;20372;-92
2023/12/01 13:15:07;;;;;;;29.90;15.70;;;;;;;;;;6292773;22;20496;-91
2023/12/01 13:17:33;;;;;;;30.50;15.30;;;;;;;;;;6292566;22;20842;-92
2023/12/01 13:19:59;;;;;;;20.37;12.30;;;;;;;;;;6295745;22;20427;-90
2023/12/01 13:22:25;;;;;;;17.87;11.80;;;;;;;;;;6345118;22;20428;-91
2023/12/01 13:24:51;;;;;;;24.00;15.10;;;;;;;;;;6325509;22;20415;-91
2023/12/01 13:27:17;;;;;;;26.37;14.10;;;;;;;;;;6293494;22;20391;-92
2023/12/01 13:29:44;;;;;;;16.80;11.63;;;;;;;;;;6291005;22;20379;-90
2023/12/01 13:32:10;;;;;;;19.10;12.87;;;;;;;;;;6318027;22;20371;-90
2023/12/01 13:34:36;;;;;;;20.60;13.10;;;;;;;;;;6292067;22;20959;-90
2023/12/01 13:37:02;;;;;;;22.60;12.67;;;;;;;;;;6295659;22;20433;-91
2023/12/01 13:39:28;;;;;;;19.37;10.47;;;;;;;;;;6292428;22;20380;-91
2023/12/01 13:41:54;;;;;;;18.90;13.10;;;;;;;;;;6296260;22;20664;-91
2023/12/01 13:44:20;;;;;;;22.53;14.37;;;;;;;;;;6292713;22;20426;-91
2023/12/01 13:46:46;;;;;;;17.10;10.27;;;;;;;;;;6291875;22;20842;-91
2023/12/01 13:49:16;;;;;;;22.20;12.63;;;;;;;;;;6293634;22;20371;-90
2023/12/01 13:51:42;;;;;;;18.70;12.63;;;;;;;;;;6295551;22;20442;-90
2023/12/01 13:54:10;;;;;;;15.77;13.43;;;;;;;;;;6291676;22;20475;-90
2023/12/01 13:56:36;;;;;;;22.07;15.20;;;;;;;;;;6295425;22;20380;-90
2023/12/01 13:59:02;;;;;;;23.20;13.30;;;;;;;;;;6291242;22;20420;-90
2023/12/01 14:01:28;;;;;;;16.10;10.77;;;;;;;;;;6319509;22;20360;-91
2023/12/01 14:03:54;;;;;;;13.33;11.17;;;;;;;;;;6291680;22;20917;-91
2023/12/01 14:06:20;;;;;;;21.23;14.17;;;;;;;;;;6293285;22;20411;-91
2023/12/01 14:08:46;;;;;;;22.50;14.67;;;;;;;;;;6291873;22;20368;-90
2023/12/01 14:11:13;;;;;;;18.40;11.83;;;;;;;;;;6291070;22;20465;-90
2023/12/01 14:13:40;;;;;;;16.63;10.83;;;;;;;;;;6317906;22;20367;-90
2023/12/01 14:16:06;;;;;;;18.97;12.83;;;;;;;;;;6291592;22;20375;-91
2023/12/01 14:18:34;;;;;;;22.53;13.37;;;;;;;;;;6289991;22;20870;-90
2023/12/01 14:21:00;;;;;;;17.17;10.90;;;;;;;;;;6290328;22;20390;-91
2023/12/01 14:23:26;;;;;;;20.60;12.20;;;;;;;;;;6290163;22;20743;-90
2023/12/01 14:25:52;;;;;;;20.40;15.33;;;;;;;;;;6290710;22;20364;-89
2023/12/01 14:28:18;;;;;;;22.73;13.57;;;;;;;;;;6289221;22;20379;-91
2023/12/01 14:30:44;;;;;;;19.67;11.00;;;;;;;;;;6289791;22;20428;-90
2023/12/01 14:33:10;;;;;;;18.93;13.20;;;;;;;;;;6289266;22;20376;-91
2023/12/01 14:35:36;;;;;;;16.60;12.37;;;;;;;;;;6318170;22;20381;-91
2023/12/01 14:38:03;;;;;;;18.30;12.33;;;;;;;;;;6292159;22;20372;-92